Time;durP1;ratioP1;P1;durP2;ratioP2;P2;SDS_P1;SDS_P2;PMS_P1;PMS_P2;Temp;Humidity;BMP_temperature;BMP_pressure;BME280_temperature;BME280_humidity;BME280_pressure;Samples;Min_cycle;Max_cycle;Signal;HPM_P1;HPM_P2
2021/12/26 00:00:09;;;;;;;25.98;11.80;;;17.80;55.50;;;;;;4986683;28;20552;-54
2021/12/26 00:02:34;;;;;;;25.13;12.02;;;17.80;55.50;;;;;;4984025;28;20544;-56
2021/12/26 00:05:00;;;;;;;24.30;11.07;;;17.80;55.50;;;;;;4983714;28;20121;-58
2021/12/26 00:07:25;;;;;;;23.60;12.05;;;17.80;55.50;;;;;;4982758;28;20506;-57
2021/12/26 00:09:51;;;;;;;18.65;9.68;;;17.80;55.50;;;;;;4985583;28;20034;-57
2021/12/26 00:12:16;;;;;;;22.20;10.45;;;17.80;55.60;;;;;;4983895;28;20038;-58
2021/12/26 00:14:42;;;;;;;20.85;10.07;;;17.80;55.50;;;;;;4986849;28;20057;-56
2021/12/26 00:17:07;;;;;;;17.42;10.00;;;17.80;55.50;;;;;;4983796;28;20715;-55
2021/12/26 00:19:33;;;;;;;18.42;9.60;;;17.80;55.50;;;;;;4983170;28;20629;-55
2021/12/26 00:21:58;;;;;;;19.38;9.73;;;17.70;55.50;;;;;;4984585;28;20147;-57
2021/12/26 00:24:24;;;;;;;18.15;9.27;;;17.70;55.40;;;;;;4986846;28;20041;-56
2021/12/26 00:26:49;;;;;;;18.40;8.93;;;17.70;55.40;;;;;;4982863;28;20033;-57
2021/12/26 00:29:15;;;;;;;18.10;9.38;;;17.70;55.40;;;;;;4980234;28;20027;-57
2021/12/26 00:31:40;;;;;;;17.58;8.70;;;17.70;55.50;;;;;;4980281;28;20117;-57
2021/12/26 00:34:06;;;;;;;15.57;8.10;;;17.80;55.40;;;;;;4983378;28;20030;-59
2021/12/26 00:36:31;;;;;;;17.30;8.18;;;17.70;55.30;;;;;;4987772;28;20406;-59
2021/12/26 00:38:57;;;;;;;14.38;7.60;;;17.80;55.40;;;;;;4983183;28;20029;-57
2021/12/26 00:41:22;;;;;;;12.48;7.45;;;17.70;55.20;;;;;;4983345;28;20041;-54
2021/12/26 00:43:48;;;;;;;13.65;7.10;;;17.70;55.40;;;;;;4981942;28;20041;-57
2021/12/26 00:46:13;;;;;;;14.63;7.53;;;17.70;55.30;;;;;;4986675;28;20026;-58
2021/12/26 00:48:39;;;;;;;13.82;6.88;;;17.80;55.40;;;;;;4981669;28;20034;-54
2021/12/26 00:51:04;;;;;;;12.75;6.95;;;17.80;55.40;;;;;;4982304;28;20030;-58
2021/12/26 00:53:30;;;;;;;10.20;6.07;;;17.70;55.30;;;;;;4983552;28;20030;-58
2021/12/26 00:55:56;;;;;;;14.57;7.20;;;17.70;55.20;;;;;;4977115;28;20038;-59
2021/12/26 00:58:21;;;;;;;12.77;6.47;;;17.80;55.20;;;;;;4982405;28;20054;-58
2021/12/26 01:00:48;;;;;;;13.68;6.53;;;17.70;55.10;;;;;;4982689;28;20409;-56
2021/12/26 01:03:14;;;;;;;12.88;5.70;;;17.80;55.20;;;;;;4982678;28;20045;-55
2021/12/26 01:05:41;;;;;;;9.30;5.80;;;17.70;55.20;;;;;;4982435;28;20030;-59
2021/12/26 01:08:08;;;;;;;11.38;5.88;;;17.70;55.20;;;;;;4981017;28;20033;-58
2021/12/26 01:10:43;;;;;;;10.07;5.80;;;17.70;55.20;;;;;;4985236;28;20039;-58
2021/12/26 01:13:21;;;;;;;12.57;5.97;;;17.70;55.20;;;;;;4982293;28;20038;-59
2021/12/26 01:15:48;;;;;;;10.32;5.10;;;17.70;55.10;;;;;;4982792;28;20034;-59
2021/12/26 01:18:14;;;;;;;8.30;4.97;;;17.70;55.20;;;;;;4973602;28;20109;-57
2021/12/26 01:20:58;;;;;;;8.32;5.32;;;17.70;55.10;;;;;;4982735;28;20114;-56
2021/12/26 01:23:24;;;;;;;10.07;5.30;;;17.70;55.10;;;;;;4982920;28;20026;-58
2021/12/26 01:25:50;;;;;;;7.80;4.80;;;17.70;55.00;;;;;;4989320;28;20030;-58
2021/12/26 01:28:18;;;;;;;7.78;5.10;;;17.70;55.10;;;;;;4982723;28;20045;-57
2021/12/26 01:30:43;;;;;;;10.85;5.15;;;17.70;55.10;;;;;;4981184;28;20034;-56
2021/12/26 01:33:11;;;;;;;10.27;5.35;;;17.60;55.00;;;;;;4982028;28;20109;-59
2021/12/26 01:35:37;;;;;;;7.35;4.60;;;17.60;55.10;;;;;;4982059;28;20038;-57
2021/12/26 01:38:03;;;;;;;7.88;4.25;;;17.70;55.00;;;;;;4982176;28;20533;-59
2021/12/26 01:40:30;;;;;;;8.00;4.43;;;17.70;55.00;;;;;;4984223;28;20041;-59
2021/12/26 01:43:01;;;;;;;7.05;4.28;;;17.60;54.90;;;;;;4987094;28;20037;-56
2021/12/26 01:45:26;;;;;;;6.75;3.63;;;17.60;54.90;;;;;;4982152;28;20061;-59
2021/12/26 01:47:57;;;;;;;7.82;3.67;;;17.60;55.50;;;;;;4982526;28;20026;-57
2021/12/26 01:50:22;;;;;;;7.03;4.35;;;17.70;54.80;;;;;;4977762;28;20027;-57
2021/12/26 01:52:48;;;;;;;7.93;4.43;;;17.70;54.80;;;;;;4984082;28;20037;-57
2021/12/26 01:55:26;;;;;;;6.50;3.78;;;17.70;54.80;;;;;;4981991;28;20030;-59
2021/12/26 01:57:53;;;;;;;7.13;3.97;;;17.70;54.70;;;;;;4979451;28;20690;-58
2021/12/26 02:00:18;;;;;;;7.25;3.67;;;17.70;54.70;;;;;;4981982;28;20037;-56
2021/12/26 02:02:44;;;;;;;7.70;3.78;;;17.70;54.60;;;;;;4982027;28;20026;-57
2021/12/26 02:05:10;;;;;;;6.28;3.22;;;17.70;54.60;;;;;;4981891;28;20042;-59
2021/12/26 02:07:35;;;;;;;7.72;4.20;;;17.70;54.60;;;;;;4984327;28;20134;-55
2021/12/26 02:10:01;;;;;;;7.97;3.58;;;17.60;54.50;;;;;;4982188;28;20093;-54
2021/12/26 02:12:26;;;;;;;5.80;3.55;;;17.60;54.50;;;;;;4980425;28;20783;-58
2021/12/26 02:14:53;;;;;;;7.82;3.67;;;17.50;54.50;;;;;;4982367;28;20109;-59
2021/12/26 02:17:19;;;;;;;6.70;4.07;;;17.50;54.50;;;;;;4978215;28;20131;-57
2021/12/26 02:19:44;;;;;;;6.60;3.28;;;17.50;54.50;;;;;;4981365;28;20105;-58
2021/12/26 02:22:14;;;;;;;5.97;3.25;;;17.50;54.50;;;;;;4982328;28;20114;-59
2021/12/26 02:27:32;;;;;;;5.10;3.42;;;17.40;54.50;;;;;;4960841;28;20761;-56
2021/12/26 02:30:04;;;;;;;6.22;3.38;;;17.40;54.50;;;;;;4996150;28;20711;-57
2021/12/26 02:32:30;;;;;;;5.38;3.00;;;17.30;54.50;;;;;;5011941;22;20042;-56
2021/12/26 02:34:57;;;;;;;4.85;2.72;;;17.30;54.50;;;;;;4999382;28;20026;-56
2021/12/26 02:37:22;;;;;;;5.20;3.05;;;17.30;54.60;;;;;;4981804;28;20119;-55
2021/12/26 02:39:48;;;;;;;3.75;3.00;;;17.30;54.50;;;;;;4980554;28;20493;-58
2021/12/26 02:42:16;;;;;;;4.85;2.50;;;17.20;54.50;;;;;;4983387;28;20121;-53
2021/12/26 02:44:41;;;;;;;3.50;2.50;;;17.20;54.50;;;;;;4958046;28;20081;-51
2021/12/26 02:47:07;;;;;;;3.13;2.17;;;17.20;54.60;;;;;;4993822;28;20023;-55
2021/12/26 02:49:32;;;;;;;4.53;2.90;;;17.20;54.60;;;;;;4984436;28;20429;-56
2021/12/26 02:51:58;;;;;;;4.13;2.92;;;17.20;54.60;;;;;;4985305;28;20030;-54
2021/12/26 02:54:24;;;;;;;4.00;2.42;;;17.20;54.60;;;;;;4983884;28;20114;-57
2021/12/26 02:56:49;;;;;;;5.75;2.30;;;17.20;54.60;;;;;;4983427;28;20038;-55
2021/12/26 02:59:15;;;;;;;4.05;2.45;;;17.20;54.60;;;;;;4982907;28;20034;-52
2021/12/26 03:01:40;;;;;;;3.70;2.55;;;17.20;54.50;;;;;;4984131;28;20117;-54
2021/12/26 03:04:08;;;;;;;5.03;2.63;;;17.30;54.30;;;;;;4983483;28;20081;-54
2021/12/26 03:07:01;;;;;;;4.05;2.67;;;17.40;54.10;;;;;;4983565;28;20117;-54
2021/12/26 03:09:20;;;;;;;4.35;2.47;;;17.40;54.10;;;;;;4983733;28;20328;-56
2021/12/26 03:11:47;;;;;;;2.97;2.33;;;17.50;54.10;;;;;;4984494;28;20501;-53
2021/12/26 03:14:12;;;;;;;3.75;2.33;;;17.50;53.90;;;;;;4984705;28;20026;-55
2021/12/26 03:16:44;;;;;;;3.60;2.50;;;17.60;54.00;;;;;;4984485;28;20502;-55
2021/12/26 03:19:10;;;;;;;4.05;2.40;;;17.60;53.90;;;;;;4984266;28;20039;-53
2021/12/26 03:21:35;;;;;;;3.28;1.95;;;17.60;53.90;;;;;;4984850;28;20041;-53
2021/12/26 03:24:01;;;;;;;3.53;2.50;;;17.60;53.90;;;;;;4984719;28;20037;-57
2021/12/26 03:26:26;;;;;;;3.92;2.28;;;17.60;53.80;;;;;;4984698;28;20033;-56
2021/12/26 03:28:52;;;;;;;3.80;2.63;;;17.60;53.80;;;;;;4983531;28;20037;-55
2021/12/26 03:31:17;;;;;;;3.17;2.05;;;17.70;53.90;;;;;;4982201;28;20121;-53
2021/12/26 03:33:43;;;;;;;2.60;1.90;;;17.60;53.80;;;;;;4983751;28;20450;-56
2021/12/26 03:36:08;;;;;;;2.75;1.73;;;17.70;53.90;;;;;;4984487;28;20501;-52
2021/12/26 03:38:35;;;;;;;3.58;1.98;;;17.70;53.60;;;;;;4991648;28;20508;-53
2021/12/26 03:41:01;;;;;;;4.07;2.20;;;17.70;53.70;;;;;;4985039;28;20041;-51
2021/12/26 03:43:27;;;;;;;2.72;2.00;;;17.70;53.90;;;;;;4984039;28;20022;-56
2021/12/26 03:45:53;;;;;;;3.55;2.17;;;17.70;53.70;;;;;;4982299;28;20041;-53
2021/12/26 03:48:19;;;;;;;3.05;2.13;;;17.70;53.60;;;;;;4984311;28;20026;-52
2021/12/26 03:50:45;;;;;;;2.47;1.85;;;17.70;53.70;;;;;;4983742;28;20603;-54
2021/12/26 03:53:11;;;;;;;3.75;2.17;;;17.70;53.70;;;;;;4986749;28;20053;-54
2021/12/26 03:55:36;;;;;;;1.92;1.70;;;17.70;53.70;;;;;;4985484;28;20034;-53
2021/12/26 03:58:02;;;;;;;3.33;1.92;;;17.70;53.70;;;;;;4987372;28;20030;-54
2021/12/26 04:00:27;;;;;;;2.92;1.83;;;17.70;53.60;;;;;;4982868;28;20091;-54
2021/12/26 04:02:53;;;;;;;2.70;2.03;;;17.60;53.60;;;;;;4984920;28;20026;-54
2021/12/26 04:05:19;;;;;;;2.95;1.90;;;17.60;53.50;;;;;;4983601;28;20029;-56
2021/12/26 04:07:44;;;;;;;2.47;1.75;;;17.70;53.60;;;;;;4984176;28;20030;-57
2021/12/26 04:10:11;;;;;;;2.53;2.03;;;17.70;53.60;;;;;;4984604;28;20037;-55
2021/12/26 04:12:37;;;;;;;3.45;1.80;;;17.70;53.50;;;;;;4983863;28;20114;-57
2021/12/26 04:15:07;;;;;;;2.90;1.98;;;17.70;53.50;;;;;;4984181;28;20033;-63
2021/12/26 04:17:32;;;;;;;4.03;1.83;;;17.70;53.50;;;;;;4982958;28;20042;-52
2021/12/26 04:19:58;;;;;;;3.30;2.00;;;17.70;53.50;;;;;;4984475;28;20543;-52
2021/12/26 04:22:23;;;;;;;3.00;2.03;;;17.70;53.30;;;;;;4983964;28;20030;-55
2021/12/26 04:24:49;;;;;;;2.65;1.73;;;17.70;53.30;;;;;;4983190;28;20412;-55
2021/12/26 04:27:14;;;;;;;2.90;1.92;;;17.70;53.20;;;;;;4982784;28;20050;-55
2021/12/26 04:29:40;;;;;;;4.95;2.03;;;17.70;53.10;;;;;;4982253;28;20668;-53
2021/12/26 04:32:05;;;;;;;3.80;2.08;;;17.70;53.10;;;;;;4993375;28;20044;-55
2021/12/26 04:34:31;;;;;;;3.70;1.98;;;17.70;52.90;;;;;;4985098;28;20026;-54
2021/12/26 04:36:56;;;;;;;2.92;1.75;;;17.70;53.10;;;;;;4983241;28;20045;-56
2021/12/26 04:39:22;;;;;;;2.78;2.00;;;17.70;53.80;;;;;;4982547;28;20045;-52
2021/12/26 04:41:48;;;;;;;2.42;1.60;;;17.60;53.00;;;;;;4982510;28;20034;-55
2021/12/26 04:44:13;;;;;;;2.78;1.90;;;17.60;52.90;;;;;;4987537;28;20031;-55
2021/12/26 04:46:39;;;;;;;3.03;1.75;;;17.60;53.00;;;;;;4982059;28;20034;-56
2021/12/26 04:49:04;;;;;;;2.67;1.40;;;17.60;53.00;;;;;;4984219;28;20037;-54
2021/12/26 04:51:30;;;;;;;3.05;1.60;;;17.60;52.90;;;;;;4982413;28;20121;-55
2021/12/26 04:53:55;;;;;;;2.75;1.58;;;17.60;52.80;;;;;;4985908;28;20017;-51
2021/12/26 04:56:21;;;;;;;3.28;1.73;;;17.60;52.90;;;;;;4982893;28;20042;-51
2021/12/26 04:58:46;;;;;;;3.83;2.20;;;17.50;52.90;;;;;;4982596;28;20033;-56
2021/12/26 05:01:12;;;;;;;4.47;2.38;;;17.50;52.80;;;;;;4983003;28;20934;-55
2021/12/26 05:03:38;;;;;;;2.17;1.80;;;17.50;52.80;;;;;;4981141;28;20076;-56
2021/12/26 05:06:03;;;;;;;3.35;1.90;;;17.50;52.70;;;;;;4983281;28;20743;-54
2021/12/26 05:08:29;;;;;;;3.08;1.48;;;17.50;52.70;;;;;;4982528;28;20026;-55
2021/12/26 05:10:55;;;;;;;2.85;1.85;;;17.40;52.70;;;;;;4980341;28;20034;-50
2021/12/26 05:13:21;;;;;;;4.38;2.05;;;17.50;52.80;;;;;;4981185;28;20511;-55
2021/12/26 05:15:46;;;;;;;3.25;1.92;;;17.40;52.70;;;;;;4982663;28;20034;-54
2021/12/26 05:18:12;;;;;;;2.67;1.95;;;17.40;52.70;;;;;;4983404;28;20034;-52
2021/12/26 05:20:37;;;;;;;3.78;1.88;;;17.40;52.70;;;;;;4981682;28;20117;-54
2021/12/26 05:23:04;;;;;;;3.35;2.00;;;17.40;52.70;;;;;;4983213;28;20157;-55
2021/12/26 05:25:30;;;;;;;3.15;1.58;;;17.40;52.90;;;;;;4984925;28;20105;-55
2021/12/26 05:27:55;;;;;;;3.38;1.80;;;17.40;52.70;;;;;;4982389;28;20434;-53
2021/12/26 05:30:21;;;;;;;2.85;2.35;;;17.40;52.70;;;;;;4982376;28;20038;-57
2021/12/26 05:32:47;;;;;;;3.60;1.92;;;17.40;52.60;;;;;;4981918;28;20045;-54
2021/12/26 05:35:14;;;;;;;2.58;1.63;;;17.40;52.60;;;;;;4983918;28;20461;-50
2021/12/26 05:37:39;;;;;;;3.03;2.05;;;17.40;52.50;;;;;;4981953;28;20038;-49
2021/12/26 05:40:06;;;;;;;3.40;1.90;;;17.30;52.40;;;;;;4988769;28;20018;-56
2021/12/26 05:42:31;;;;;;;2.75;1.70;;;17.30;52.40;;;;;;4982825;28;20030;-52
2021/12/26 05:44:57;;;;;;;3.63;2.13;;;17.30;52.20;;;;;;4980583;28;20105;-50
2021/12/26 05:47:22;;;;;;;3.53;1.75;;;17.30;52.10;;;;;;4981924;28;20035;-54
2021/12/26 05:49:48;;;;;;;3.60;1.95;;;17.40;52.10;;;;;;4982907;28;20058;-56
2021/12/26 05:52:13;;;;;;;2.80;1.83;;;17.40;52.10;;;;;;4982355;28;20069;-51
2021/12/26 05:54:39;;;;;;;3.22;1.92;;;17.30;52.00;;;;;;4982321;28;20082;-60
2021/12/26 05:57:05;;;;;;;3.63;2.25;;;17.40;52.10;;;;;;4981194;28;20045;-58
2021/12/26 05:59:30;;;;;;;3.67;2.00;;;17.40;52.10;;;;;;4982251;28;20034;-53
2021/12/26 06:01:56;;;;;;;2.70;2.05;;;17.40;52.00;;;;;;4982208;28;20780;-50
2021/12/26 06:04:21;;;;;;;3.20;1.92;;;17.40;52.10;;;;;;4982472;28;20035;-50
2021/12/26 06:06:47;;;;;;;3.50;1.90;;;17.30;52.10;;;;;;4983665;28;20441;-55
2021/12/26 06:09:12;;;;;;;2.90;1.70;;;17.30;52.10;;;;;;4982061;28;20556;-55
2021/12/26 06:11:38;;;;;;;2.50;1.70;;;17.30;52.80;;;;;;4977386;28;20429;-53
2021/12/26 06:14:03;;;;;;;3.33;2.38;;;17.40;52.30;;;;;;4982651;28;20113;-52
2021/12/26 06:16:29;;;;;;;2.83;1.70;;;17.40;52.30;;;;;;4990667;28;20109;-56
2021/12/26 06:18:54;;;;;;;2.78;2.00;;;17.40;52.30;;;;;;4981414;28;20722;-49
2021/12/26 06:21:20;;;;;;;3.25;1.85;;;17.40;52.30;;;;;;4983144;28;20057;-51
2021/12/26 06:23:50;;;;;;;2.47;1.95;;;17.40;52.50;;;;;;4984244;28;20405;-56
2021/12/26 06:26:17;;;;;;;2.95;1.90;;;17.40;52.30;;;;;;4985694;28;20030;-54
2021/12/26 06:28:42;;;;;;;3.67;1.90;;;17.40;52.30;;;;;;4985666;28;20038;-56
2021/12/26 06:31:08;;;;;;;3.00;2.08;;;17.40;52.30;;;;;;4988554;28;20026;-60
2021/12/26 06:33:33;;;;;;;3.05;1.70;;;17.40;52.30;;;;;;4985784;28;21896;-53
2021/12/26 06:35:59;;;;;;;2.00;1.63;;;17.40;52.20;;;;;;4983827;28;20125;-51
2021/12/26 06:38:24;;;;;;;4.75;2.30;;;17.40;52.30;;;;;;4985408;28;20035;-59
2021/12/26 06:40:50;;;;;;;2.78;1.80;;;17.40;52.40;;;;;;4984938;28;20026;-58
2021/12/26 06:43:15;;;;;;;2.88;1.90;;;17.40;52.30;;;;;;4985083;28;20038;-56
2021/12/26 06:45:41;;;;;;;3.08;2.10;;;17.50;52.20;;;;;;4985095;28;20030;-53
2021/12/26 06:48:06;;;;;;;3.03;2.08;;;17.50;52.30;;;;;;4983831;28;20033;-53
2021/12/26 06:50:32;;;;;;;4.18;2.20;;;17.40;52.20;;;;;;4983217;28;20034;-54
2021/12/26 06:52:57;;;;;;;2.95;1.83;;;17.50;52.30;;;;;;4985066;28;20088;-50
2021/12/26 06:55:23;;;;;;;3.13;2.25;;;17.50;52.20;;;;;;4984904;28;20120;-53
2021/12/26 06:57:48;;;;;;;3.30;2.17;;;17.50;52.30;;;;;;4983971;28;20030;-59
2021/12/26 07:00:15;;;;;;;2.80;1.90;;;17.50;52.10;;;;;;4984854;28;20030;-57
2021/12/26 07:02:42;;;;;;;5.05;2.30;;;17.50;51.90;;;;;;4967329;28;20102;-50
2021/12/26 07:05:08;;;;;;;3.47;2.15;;;17.50;51.90;;;;;;4984099;28;20043;-53
2021/12/26 07:07:34;;;;;;;4.93;2.25;;;17.50;52.10;;;;;;4983053;28;20049;-50
2021/12/26 07:10:00;;;;;;;4.95;1.88;;;17.50;52.00;;;;;;4984931;28;20461;-53
2021/12/26 07:12:26;;;;;;;3.45;2.28;;;17.50;52.20;;;;;;4985049;28;20031;-54
2021/12/26 07:14:51;;;;;;;6.57;3.25;;;17.50;52.20;;;;;;4984850;28;20053;-53
2021/12/26 07:17:17;;;;;;;6.55;2.45;;;17.50;52.40;;;;;;4984590;28;20113;-56
2021/12/26 07:19:42;;;;;;;6.18;2.10;;;17.50;52.50;;;;;;4984131;28;20081;-52
2021/12/26 07:22:08;;;;;;;7.45;2.00;;;17.50;52.70;;;;;;4984768;28;20037;-53
2021/12/26 07:24:33;;;;;;;5.70;2.20;;;17.50;52.70;;;;;;4983615;28;20038;-52
2021/12/26 07:26:59;;;;;;;6.00;1.90;;;17.50;52.90;;;;;;4984483;28;20109;-55
2021/12/26 07:29:25;;;;;;;4.35;2.50;;;17.50;52.90;;;;;;4984135;28;20073;-52
2021/12/26 07:31:50;;;;;;;10.85;2.00;;;17.50;53.00;;;;;;4982846;28;20038;-58
2021/12/26 07:34:16;;;;;;;7.05;2.13;;;17.40;53.00;;;;;;4983162;28;20041;-56
2021/12/26 07:36:41;;;;;;;7.20;3.13;;;17.50;53.00;;;;;;4984574;28;20065;-57
2021/12/26 07:39:07;;;;;;;5.68;1.98;;;17.40;52.90;;;;;;4986543;28;20034;-57
2021/12/26 07:41:32;;;;;;;2.65;1.98;;;17.40;52.90;;;;;;4987896;28;20124;-53
2021/12/26 07:43:59;;;;;;;3.63;2.15;;;17.40;53.10;;;;;;4984562;28;20041;-56
2021/12/26 07:46:24;;;;;;;3.38;1.83;;;17.40;53.30;;;;;;4984629;28;20038;-51
2021/12/26 07:48:50;;;;;;;6.50;1.90;;;17.40;53.50;;;;;;4981781;28;20041;-54
2021/12/26 07:51:15;;;;;;;8.18;2.95;;;17.40;53.90;;;;;;4966238;28;20592;-55
2021/12/26 07:53:41;;;;;;;5.80;2.65;;;17.40;54.10;;;;;;4983835;28;20092;-51
2021/12/26 07:56:06;;;;;;;6.20;2.70;;;17.30;54.20;;;;;;4984540;28;20034;-56
2021/12/26 07:58:32;;;;;;;6.95;2.65;;;17.30;54.40;;;;;;4982441;28;20031;-59
2021/12/26 08:00:57;;;;;;;6.78;2.50;;;17.30;54.70;;;;;;4983948;28;20023;-53
2021/12/26 08:03:23;;;;;;;8.77;3.13;;;17.30;54.90;;;;;;4990761;28;20524;-54
2021/12/26 08:05:48;;;;;;;7.97;2.58;;;17.20;54.90;;;;;;4966432;28;20057;-55
2021/12/26 08:08:14;;;;;;;6.78;3.38;;;17.20;54.90;;;;;;4984507;28;20488;-58
2021/12/26 08:10:39;;;;;;;12.65;4.13;;;17.20;55.00;;;;;;4966253;28;20144;-51
2021/12/26 08:13:05;;;;;;;16.48;5.72;;;17.30;55.10;;;;;;4989907;28;20537;-53
2021/12/26 08:15:30;;;;;;;15.98;5.45;;;17.20;55.00;;;;;;4984113;28;20046;-57
2021/12/26 08:17:56;;;;;;;11.30;5.88;;;17.20;55.00;;;;;;4989636;28;20030;-53
2021/12/26 08:20:21;;;;;;;21.00;6.45;;;17.10;55.10;;;;;;4980483;28;20042;-58
2021/12/26 08:22:47;;;;;;;12.02;7.43;;;17.10;55.00;;;;;;4982220;28;20058;-52
2021/12/26 08:25:12;;;;;;;18.63;8.68;;;17.00;55.00;;;;;;4983569;28;20027;-51
2021/12/26 08:27:38;;;;;;;15.15;8.32;;;17.00;55.10;;;;;;4984409;28;20111;-52
2021/12/26 08:30:05;;;;;;;13.60;8.02;;;17.00;55.00;;;;;;4983026;28;20034;-49
2021/12/26 08:32:33;;;;;;;16.58;7.85;;;16.90;54.90;;;;;;4987568;28;20042;-52
2021/12/26 08:35:00;;;;;;;13.32;7.50;;;16.90;54.80;;;;;;5032371;23;20053;-66
2021/12/26 08:37:27;;;;;;;21.45;8.68;;;16.90;54.90;;;;;;5022768;28;20624;-66
2021/12/26 08:39:52;;;;;;;12.63;7.95;;;16.90;54.80;;;;;;5025034;28;20470;-67
2021/12/26 08:42:18;;;;;;;13.88;8.30;;;16.80;54.70;;;;;;5025572;28;20020;-66
2021/12/26 08:44:43;;;;;;;15.40;7.80;;;16.80;54.50;;;;;;5007661;28;20037;-68
2021/12/26 08:47:10;;;;;;;12.38;7.72;;;16.80;54.10;;;;;;5005054;28;20041;-67
2021/12/26 08:49:35;;;;;;;18.23;9.45;;;16.80;54.10;;;;;;4985149;28;20042;-66
2021/12/26 08:52:01;;;;;;;15.65;8.30;;;16.80;54.00;;;;;;5003595;28;20512;-64
2021/12/26 08:54:28;;;;;;;12.82;8.57;;;16.80;54.10;;;;;;4969321;28;20026;-64
2021/12/26 08:56:54;;;;;;;16.95;9.13;;;16.90;54.20;;;;;;5001164;28;20522;-66
2021/12/26 08:59:20;;;;;;;14.93;9.82;;;16.90;54.20;;;;;;5005164;28;20048;-67
2021/12/26 09:01:46;;;;;;;16.70;10.15;;;16.90;54.30;;;;;;5004252;28;20061;-66
2021/12/26 09:04:12;;;;;;;17.13;8.70;;;17.00;54.00;;;;;;4988267;28;20054;-68
2021/12/26 09:06:37;;;;;;;18.98;9.50;;;17.10;53.60;;;;;;5004447;28;20049;-65
2021/12/26 09:09:03;;;;;;;16.30;8.95;;;17.20;53.40;;;;;;4967978;28;20049;-65
2021/12/26 09:11:29;;;;;;;17.92;9.00;;;17.20;53.30;;;;;;5005016;28;20029;-67
2021/12/26 09:13:54;;;;;;;15.95;7.82;;;17.30;53.30;;;;;;4988916;28;20029;-66
2021/12/26 09:16:20;;;;;;;16.75;8.20;;;17.30;53.20;;;;;;5001109;28;20753;-66
2021/12/26 09:18:46;;;;;;;12.55;8.07;;;17.30;53.20;;;;;;5003698;28;20026;-65
2021/12/26 09:21:11;;;;;;;18.52;10.13;;;17.30;53.20;;;;;;5005683;28;20054;-68
2021/12/26 09:23:37;;;;;;;40.58;19.85;;;17.40;53.00;;;;;;5004482;28;20381;-67
2021/12/26 09:26:02;;;;;;;67.15;28.48;;;17.40;53.30;;;;;;4985212;28;20034;-66
2021/12/26 09:28:28;;;;;;;71.03;34.58;;;17.40;53.20;;;;;;5000726;28;20104;-66
2021/12/26 09:30:54;;;;;;;79.45;38.47;;;17.40;53.20;;;;;;4988164;28;20029;-67
2021/12/26 09:33:19;;;;;;;88.78;40.30;;;17.40;53.40;;;;;;4987571;28;20064;-67
2021/12/26 09:35:48;;;;;;;91.65;42.47;;;17.40;53.60;;;;;;4987688;28;20060;-65
2021/12/26 09:38:14;;;;;;;86.40;40.45;;;17.40;53.70;;;;;;4986195;28;20203;-67
2021/12/26 09:40:39;;;;;;;82.18;39.15;;;17.40;53.80;;;;;;5003449;28;20530;-67
2021/12/26 09:43:05;;;;;;;80.40;38.88;;;17.40;53.90;;;;;;4987630;28;20032;-64
2021/12/26 09:45:30;;;;;;;78.75;39.10;;;17.50;54.00;;;;;;5003977;28;20026;-64
2021/12/26 09:47:56;;;;;;;85.50;40.30;;;17.50;54.10;;;;;;4986298;28;20192;-63
2021/12/26 09:50:22;;;;;;;86.57;41.08;;;17.50;54.10;;;;;;5004917;28;20026;-65
2021/12/26 09:52:48;;;;;;;89.63;41.58;;;17.50;54.30;;;;;;5005584;28;20029;-66
2021/12/26 09:55:14;;;;;;;83.22;41.30;;;17.50;54.30;;;;;;5004358;28;20025;-65
2021/12/26 09:57:40;;;;;;;75.72;40.25;;;17.50;54.30;;;;;;5007978;28;20014;-65
2021/12/26 10:00:22;;;;;;;85.90;39.20;;;17.50;54.40;;;;;;4992119;28;20076;-65
2021/12/26 10:02:47;;;;;;;76.72;37.42;;;17.40;54.40;;;;;;5009118;28;20034;-65
2021/12/26 10:05:13;;;;;;;83.65;38.03;;;17.50;54.50;;;;;;4990832;28;20018;-64
2021/12/26 10:07:38;;;;;;;74.25;37.50;;;17.50;54.60;;;;;;5008885;28;20026;-63
2021/12/26 10:10:05;;;;;;;80.30;38.60;;;17.50;54.70;;;;;;4989094;28;20017;-65
2021/12/26 10:12:37;;;;;;;88.68;41.22;;;17.50;54.70;;;;;;5015430;28;20021;-65
2021/12/26 10:15:02;;;;;;;88.38;40.28;;;17.50;54.90;;;;;;4989684;28;20133;-64
2021/12/26 10:17:28;;;;;;;81.07;39.75;;;17.50;55.00;;;;;;5007332;28;20525;-66
2021/12/26 10:20:10;;;;;;;85.32;37.72;;;17.50;55.00;;;;;;4991792;28;20037;-65
2021/12/26 10:22:35;;;;;;;73.93;34.60;;;17.50;54.90;;;;;;5008606;28;20017;-67
2021/12/26 10:25:11;;;;;;;69.93;36.22;;;17.40;54.80;;;;;;4992263;28;20040;-65
2021/12/26 10:27:37;;;;;;;71.22;32.90;;;17.40;54.70;;;;;;5009292;28;20022;-66
2021/12/26 10:30:04;;;;;;;65.13;31.83;;;17.40;54.50;;;;;;5007087;28;20101;-66
2021/12/26 10:32:37;;;;;;;62.47;29.23;;;17.40;54.40;;;;;;5008983;28;20029;-66
2021/12/26 10:35:09;;;;;;;59.78;28.55;;;17.30;54.20;;;;;;5007707;28;20084;-67
2021/12/26 10:37:36;;;;;;;57.78;24.35;;;17.30;54.10;;;;;;4988347;28;20038;-66
2021/12/26 10:40:11;;;;;;;53.40;25.35;;;17.30;53.70;;;;;;4990738;28;20468;-66
2021/12/26 10:42:44;;;;;;;48.67;23.65;;;17.20;53.70;;;;;;5007069;28;20417;-66
2021/12/26 10:45:17;;;;;;;47.60;24.15;;;17.20;53.70;;;;;;5008286;28;20478;-66
2021/12/26 10:47:53;;;;;;;44.22;22.00;;;17.20;53.60;;;;;;5006935;28;20026;-66
2021/12/26 10:50:20;;;;;;;43.90;20.25;;;17.20;54.20;;;;;;5008307;28;20103;-66
2021/12/26 10:53:05;;;;;;;47.72;20.10;;;17.20;53.50;;;;;;5002820;28;20037;-65
2021/12/26 10:55:34;;;;;;;40.17;19.30;;;17.20;54.00;;;;;;5007868;28;20025;-66
2021/12/26 10:58:02;;;;;;;43.38;22.27;;;17.20;53.40;;;;;;5008511;28;20476;-66
2021/12/26 11:00:33;;;;;;;41.33;18.80;;;17.20;53.30;;;;;;4990205;28;20029;-66
2021/12/26 11:03:05;;;;;;;36.35;19.75;;;17.20;53.30;;;;;;4990936;28;20026;-67
2021/12/26 11:05:35;;;;;;;34.65;17.58;;;17.20;53.10;;;;;;5007150;28;20022;-65
2021/12/26 11:08:02;;;;;;;31.73;16.17;;;17.20;52.50;;;;;;5005994;28;20049;-65
2021/12/26 11:10:52;;;;;;;29.23;15.80;;;17.20;52.60;;;;;;5007455;28;20295;-64
2021/12/26 11:13:19;;;;;;;31.27;16.35;;;17.20;53.00;;;;;;5003034;28;20049;-65
2021/12/26 11:15:46;;;;;;;30.67;15.88;;;17.20;53.20;;;;;;5006452;28;20041;-66
2021/12/26 11:18:13;;;;;;;33.30;15.75;;;17.10;52.90;;;;;;5006556;28;20042;-66
2021/12/26 11:20:48;;;;;;;29.65;15.73;;;17.10;53.10;;;;;;5007449;28;20438;-66
2021/12/26 11:23:21;;;;;;;31.10;14.52;;;17.00;53.20;;;;;;5006136;28;20144;-66
2021/12/26 11:25:52;;;;;;;31.60;14.65;;;17.00;53.60;;;;;;5007977;28;20109;-66
2021/12/26 11:28:25;;;;;;;27.00;14.30;;;17.00;53.90;;;;;;4990364;28;20387;-65
2021/12/26 11:30:51;;;;;;;30.38;14.48;;;16.90;54.10;;;;;;5007589;28;20029;-67
2021/12/26 11:33:16;;;;;;;30.50;15.45;;;16.90;54.20;;;;;;5006199;28;20044;-68
2021/12/26 11:35:42;;;;;;;22.80;13.23;;;16.90;54.30;;;;;;4989650;28;20034;-66
2021/12/26 11:38:14;;;;;;;29.98;14.52;;;16.90;54.40;;;;;;4990027;28;20506;-66
2021/12/26 11:40:41;;;;;;;30.15;14.25;;;16.80;54.40;;;;;;4986463;28;20017;-67
2021/12/26 11:43:38;;;;;;;24.40;13.23;;;16.80;54.50;;;;;;4992733;28;20024;-67
2021/12/26 11:46:25;;;;;;;25.42;13.40;;;16.80;54.50;;;;;;5006805;28;20030;-66
2021/12/26 11:48:55;;;;;;;22.50;13.00;;;16.70;54.50;;;;;;5005486;28;20030;-65
2021/12/26 11:51:31;;;;;;;23.33;12.77;;;16.70;54.60;;;;;;5005783;28;20112;-67
2021/12/26 11:54:11;;;;;;;26.58;14.75;;;16.70;54.70;;;;;;4972336;28;20026;-65
2021/12/26 11:57:13;;;;;;;23.35;12.82;;;16.70;54.70;;;;;;5006293;28;20037;-66
2021/12/26 12:00:02;;;;;;;21.42;12.35;;;16.60;54.90;;;;;;4964482;28;20034;-66
2021/12/26 12:02:42;;;;;;;23.92;12.63;;;16.70;54.90;;;;;;5001100;28;20017;-67
2021/12/26 12:05:14;;;;;;;24.58;12.55;;;16.70;54.90;;;;;;5006516;28;20029;-66
2021/12/26 12:07:54;;;;;;;29.40;12.52;;;16.80;54.70;;;;;;4985807;28;20487;-65
2021/12/26 12:10:52;;;;;;;22.50;12.50;;;16.90;54.60;;;;;;4986079;28;20050;-65
2021/12/26 12:13:26;;;;;;;25.50;12.05;;;17.00;54.50;;;;;;4997718;28;20125;-65
2021/12/26 12:15:53;;;;;;;26.58;11.73;;;17.10;54.50;;;;;;5006673;28;20034;-64
2021/12/26 12:18:27;;;;;;;21.85;11.23;;;17.10;54.40;;;;;;4986024;28;20198;-69
2021/12/26 12:21:09;;;;;;;21.55;11.95;;;17.20;54.20;;;;;;5005618;28;20414;-66
2021/12/26 12:23:36;;;;;;;21.80;12.23;;;17.20;54.00;;;;;;5001906;28;20151;-66
2021/12/26 12:26:02;;;;;;;21.10;12.00;;;17.30;54.10;;;;;;4985987;28;20384;-66
2021/12/26 12:28:33;;;;;;;26.13;13.80;;;17.30;54.00;;;;;;5004782;28;20021;-62
2021/12/26 12:31:07;;;;;;;34.45;17.88;;;17.40;54.10;;;;;;5004958;28;20038;-63
2021/12/26 12:33:33;;;;;;;122.23;69.10;;;17.40;54.30;;;;;;5005704;28;20022;-63
2021/12/26 12:36:02;;;;;;;159.93;96.93;;;17.40;55.20;;;;;;5004172;28;20492;-61
2021/12/26 12:38:41;;;;;;;195.93;112.60;;;17.50;56.40;;;;;;5006102;28;20057;-62
2021/12/26 12:41:27;;;;;;;198.85;116.10;;;17.50;57.60;;;;;;5007155;28;20033;-65